createdAt,value
2018-12-08T00:00:27.378Z,12.00
2018-12-08T00:02:54.792Z,10.87
2018-12-08T00:05:22.228Z,10.20
2018-12-08T00:07:49.633Z,16.33
2018-12-08T00:10:17.064Z,14.80
2018-12-08T00:12:44.473Z,11.57
2018-12-08T00:15:12.025Z,17.07
2018-12-08T00:17:39.303Z,16.00
2018-12-08T00:20:06.704Z,15.10
2018-12-08T00:22:34.143Z,12.27
2018-12-08T00:25:01.593Z,11.77
2018-12-08T00:27:28.991Z,11.23
2018-12-08T00:29:56.409Z,11.80
2018-12-08T00:32:23.839Z,14.63
2018-12-08T00:34:51.248Z,11.70
2018-12-08T00:37:18.689Z,12.82
2018-12-08T00:39:46.103Z,10.23
2018-12-08T00:42:13.502Z,15.70
2018-12-08T00:44:40.942Z,21.77
2018-12-08T00:47:08.360Z,15.17
2018-12-08T00:49:35.790Z,20.93
2018-12-08T00:52:03.229Z,15.00
2018-12-08T00:54:30.656Z,12.53
2018-12-08T00:56:58.112Z,10.97
2018-12-08T00:59:25.543Z,11.63
2018-12-08T01:01:53.061Z,12.90
2018-12-08T01:04:20.462Z,13.97
2018-12-08T01:06:47.893Z,11.63
2018-12-08T01:09:15.408Z,14.60
2018-12-08T01:11:42.720Z,12.03
2018-12-08T01:14:10.130Z,13.30
2018-12-08T01:16:37.547Z,13.80
2018-12-08T01:19:04.954Z,9.63
2018-12-08T01:21:32.363Z,11.03
2018-12-08T01:23:59.775Z,8.00
2018-12-08T01:26:27.200Z,8.50
2018-12-08T01:28:54.628Z,12.07
2018-12-08T01:31:22.018Z,11.80
2018-12-08T01:33:49.446Z,16.93
2018-12-08T01:36:16.859Z,11.40
2018-12-08T01:38:44.254Z,16.43
2018-12-08T01:41:11.685Z,13.93
2018-12-08T01:43:39.103Z,13.03
2018-12-08T01:46:06.515Z,9.43
2018-12-08T01:48:33.953Z,14.13
2018-12-08T01:51:01.371Z,12.57
2018-12-08T01:53:28.788Z,17.27
2018-12-08T01:55:56.195Z,14.37
2018-12-08T01:58:23.609Z,17.20
2018-12-08T02:00:51.072Z,12.37
2018-12-08T02:03:18.440Z,13.13
2018-12-08T02:05:45.861Z,13.00
2018-12-08T02:08:13.307Z,17.63
2018-12-08T02:10:40.676Z,12.90
2018-12-08T02:13:08.076Z,12.03
2018-12-08T02:15:35.499Z,17.23
2018-12-08T02:18:02.900Z,14.67
2018-12-08T02:20:30.296Z,13.07
2018-12-08T02:22:57.738Z,11.97
2018-12-08T02:25:25.132Z,11.80
2018-12-08T02:27:52.560Z,14.37
2018-12-08T02:30:19.959Z,15.80
2018-12-08T02:32:47.379Z,11.70
2018-12-08T02:35:14.800Z,15.07
2018-12-08T02:37:42.228Z,10.90
2018-12-08T02:40:09.642Z,11.67
2018-12-08T02:42:37.067Z,13.23
2018-12-08T02:45:04.482Z,13.37
2018-12-08T02:47:31.909Z,9.87
2018-12-08T02:49:59.295Z,14.40
2018-12-08T02:52:26.726Z,13.13
2018-12-08T02:54:54.173Z,10.57
2018-12-08T02:57:21.605Z,10.10
2018-12-08T02:59:49.034Z,12.00
2018-12-08T03:02:16.441Z,11.13
2018-12-08T03:04:43.863Z,10.33
2018-12-08T03:07:11.261Z,6.90
2018-12-08T03:09:38.686Z,13.70
2018-12-08T03:12:06.080Z,7.37
2018-12-08T03:14:34.357Z,11.87
2018-12-08T03:17:01.752Z,12.23
2018-12-08T03:19:29.151Z,12.93
2018-12-08T03:21:56.601Z,14.67
2018-12-08T03:24:24.053Z,18.57
2018-12-08T03:26:51.473Z,10.73
2018-12-08T03:29:18.902Z,11.30
2018-12-08T03:31:46.362Z,10.77
2018-12-08T03:34:13.777Z,12.00
2018-12-08T03:36:41.213Z,12.47
2018-12-08T03:39:08.631Z,12.80
2018-12-08T03:41:36.050Z,12.70
2018-12-08T03:44:03.470Z,17.03
2018-12-08T03:46:30.881Z,13.60
2018-12-08T03:48:58.316Z,13.43
2018-12-08T03:51:25.773Z,14.00
2018-12-08T03:53:53.169Z,11.03
2018-12-08T03:56:20.581Z,10.80
2018-12-08T03:58:48.049Z,9.43
2018-12-08T04:01:15.454Z,8.17
2018-12-08T04:03:42.892Z,8.43
2018-12-08T04:06:10.299Z,10.70
2018-12-08T04:08:37.747Z,10.13
2018-12-08T04:11:05.169Z,16.73
2018-12-08T04:13:32.596Z,15.23
2018-12-08T04:16:00.006Z,16.80
2018-12-08T04:18:27.435Z,16.70
2018-12-08T04:20:54.854Z,12.47
2018-12-08T04:23:22.292Z,12.40
2018-12-08T04:25:49.679Z,14.87
2018-12-08T04:28:17.080Z,14.00
2018-12-08T04:30:44.552Z,19.17
2018-12-08T04:33:11.974Z,12.23
2018-12-08T04:35:39.384Z,11.30
2018-12-08T04:38:06.818Z,14.27
2018-12-08T04:40:34.276Z,5.93
2018-12-08T04:43:01.716Z,8.97
2018-12-08T04:45:29.146Z,9.13
2018-12-08T04:47:56.566Z,10.43
2018-12-08T04:50:24.000Z,10.43
2018-12-08T04:52:51.425Z,7.60
2018-12-08T04:55:18.853Z,5.90
2018-12-08T04:57:46.266Z,7.60
2018-12-08T05:00:14.530Z,8.30
2018-12-08T05:02:41.932Z,6.73
2018-12-08T05:05:09.359Z,10.30
2018-12-08T05:07:36.793Z,12.63
2018-12-08T05:10:04.192Z,10.63
2018-12-08T05:12:31.929Z,10.50
2018-12-08T05:14:59.378Z,8.37
2018-12-08T05:17:26.813Z,14.37
2018-12-08T05:19:54.238Z,9.63
2018-12-08T05:22:21.619Z,15.87
2018-12-08T05:24:49.041Z,12.43
2018-12-08T05:27:16.463Z,11.20
2018-12-08T05:29:43.874Z,11.33
2018-12-08T05:32:11.314Z,13.43
2018-12-08T05:34:38.726Z,11.47
2018-12-08T05:37:06.160Z,12.80
2018-12-08T05:39:33.561Z,14.73
2018-12-08T05:42:01.003Z,11.23
2018-12-08T05:44:28.421Z,10.60
2018-12-08T05:46:55.894Z,11.70
2018-12-08T05:49:23.301Z,11.07
2018-12-08T05:51:51.058Z,9.93
2018-12-08T05:54:18.488Z,11.30
2018-12-08T05:56:45.944Z,8.23
2018-12-08T05:59:13.365Z,11.90
2018-12-08T06:01:40.770Z,10.20
2018-12-08T06:04:08.197Z,7.90
2018-12-08T06:06:35.590Z,9.13
2018-12-08T06:09:03.011Z,6.17
2018-12-08T06:11:30.425Z,7.27
2018-12-08T06:14:00.543Z,5.73
2018-12-08T06:16:27.941Z,9.13
2018-12-08T06:18:55.360Z,7.30
2018-12-08T06:21:34.467Z,9.30
2018-12-08T06:24:01.906Z,7.70
2018-12-08T06:26:29.380Z,7.20
2018-12-08T06:28:56.752Z,9.50
2018-12-08T06:31:24.170Z,11.27
2018-12-08T06:33:51.612Z,11.13
2018-12-08T06:36:19.034Z,9.93
2018-12-08T06:38:46.438Z,17.93
2018-12-08T06:41:13.872Z,11.53
2018-12-08T06:43:41.271Z,11.73
2018-12-08T06:46:08.715Z,12.60
2018-12-08T06:48:36.119Z,14.27
2018-12-08T06:51:03.537Z,14.37
2018-12-08T06:53:30.971Z,18.43
2018-12-08T06:55:58.426Z,14.60
2018-12-08T06:58:25.846Z,9.30
2018-12-08T07:00:53.276Z,19.83
2018-12-08T07:03:20.782Z,17.63
2018-12-08T07:05:48.214Z,14.27
2018-12-08T07:08:15.612Z,12.83
2018-12-08T07:10:43.035Z,11.17
2018-12-08T07:13:10.467Z,21.03
2018-12-08T07:15:37.894Z,15.80
2018-12-08T07:18:05.313Z,13.53
2018-12-08T07:20:32.713Z,13.23
2018-12-08T07:23:00.147Z,16.90
2018-12-08T07:25:27.565Z,14.27
2018-12-08T07:27:55.025Z,19.40
2018-12-08T07:30:22.437Z,13.90
2018-12-08T07:32:49.875Z,14.40
2018-12-08T07:35:17.277Z,13.47
2018-12-08T07:37:44.676Z,15.80
2018-12-08T07:40:12.120Z,14.57
2018-12-08T07:42:39.531Z,16.77
2018-12-08T07:45:06.991Z,12.57
2018-12-08T07:47:35.067Z,12.53
2018-12-08T07:50:02.522Z,15.07
2018-12-08T07:52:29.934Z,15.20
2018-12-08T07:54:57.359Z,14.50
2018-12-08T07:57:24.835Z,14.43
2018-12-08T07:59:52.361Z,14.57
2018-12-08T08:02:19.788Z,15.70
2018-12-08T08:04:47.180Z,12.53
2018-12-08T08:07:14.681Z,20.17
2018-12-08T08:09:42.102Z,16.00
2018-12-08T08:12:09.563Z,11.93
2018-12-08T08:14:37.144Z,13.43
2018-12-08T08:17:04.574Z,12.57
2018-12-08T08:19:32.020Z,17.90
2018-12-08T08:21:59.449Z,19.13
2018-12-08T08:24:26.895Z,27.07
2018-12-08T08:26:54.314Z,18.47
2018-12-08T08:29:21.741Z,18.03
2018-12-08T08:31:49.181Z,21.27
2018-12-08T08:34:16.596Z,17.03
2018-12-08T08:36:44.020Z,19.07
2018-12-08T08:39:11.434Z,18.57
2018-12-08T08:41:38.871Z,19.73
2018-12-08T08:44:06.287Z,18.40
2018-12-08T08:46:33.715Z,12.57
2018-12-08T08:49:01.127Z,19.97
2018-12-08T08:51:28.575Z,23.73
2018-12-08T08:53:55.990Z,21.57
2018-12-08T08:56:23.422Z,24.30
2018-12-08T08:58:50.858Z,15.80
2018-12-08T09:01:18.272Z,19.10
2018-12-08T09:03:45.678Z,21.77
2018-12-08T09:06:13.100Z,24.60
2018-12-08T09:08:40.544Z,27.73
2018-12-08T09:11:07.995Z,17.57
2018-12-08T09:13:35.459Z,14.87
2018-12-08T09:16:02.959Z,21.13
2018-12-08T09:18:30.360Z,26.83
2018-12-08T09:20:57.742Z,25.10
2018-12-08T09:23:25.204Z,20.67
2018-12-08T09:25:52.632Z,22.57
2018-12-08T09:28:20.073Z,21.27
2018-12-08T09:30:47.482Z,20.70
2018-12-08T09:33:14.920Z,18.63
2018-12-08T09:35:42.342Z,22.57
2018-12-08T09:38:09.771Z,16.53
2018-12-08T09:40:37.181Z,17.93
2018-12-08T09:43:04.609Z,15.67
2018-12-08T09:45:32.028Z,17.80
2018-12-08T09:47:59.461Z,17.60
2018-12-08T09:50:26.914Z,23.27
2018-12-08T09:53:12.637Z,20.80
2018-12-08T09:55:40.072Z,24.33
2018-12-08T09:58:07.479Z,17.67
2018-12-08T10:00:34.901Z,22.43
2018-12-08T10:03:02.326Z,15.23
2018-12-08T10:05:30.098Z,20.07
2018-12-08T10:07:57.507Z,20.87
2018-12-08T10:10:24.943Z,26.60
2018-12-08T10:12:52.363Z,19.93
2018-12-08T10:15:19.771Z,18.27
2018-12-08T10:17:47.210Z,16.17
2018-12-08T10:20:14.617Z,26.00
2018-12-08T10:22:42.033Z,17.53
2018-12-08T10:25:09.434Z,20.43
2018-12-08T10:27:36.949Z,21.93
2018-12-08T10:30:04.263Z,23.43
2018-12-08T10:32:31.676Z,17.63
2018-12-08T10:34:59.110Z,18.00
2018-12-08T10:37:26.670Z,19.40
2018-12-08T10:39:54.103Z,18.20
2018-12-08T10:42:21.570Z,19.87
2018-12-08T10:44:49.033Z,18.07
2018-12-08T10:47:16.471Z,19.63
2018-12-08T10:49:43.886Z,19.73
2018-12-08T10:52:11.315Z,19.40
2018-12-08T10:54:38.725Z,15.53
2018-12-08T10:57:06.229Z,23.07
2018-12-08T10:59:36.211Z,21.33
2018-12-08T11:02:03.639Z,18.73
2018-12-08T11:04:31.057Z,19.83
2018-12-08T11:06:58.487Z,24.77
2018-12-08T11:09:25.934Z,22.50
2018-12-08T11:11:53.434Z,20.33
2018-12-08T11:14:20.832Z,22.40
2018-12-08T11:16:48.238Z,19.90
2018-12-08T11:19:15.679Z,24.23
2018-12-08T11:21:43.117Z,22.00
2018-12-08T11:24:10.541Z,21.50
2018-12-08T11:26:37.942Z,30.43
2018-12-08T11:29:05.388Z,20.17
2018-12-08T11:31:32.839Z,23.40
2018-12-08T11:34:00.241Z,24.97
2018-12-08T11:36:27.787Z,17.27
2018-12-08T11:38:55.217Z,25.73
2018-12-08T11:41:22.617Z,19.30
2018-12-08T11:43:50.020Z,23.17
2018-12-08T11:46:17.472Z,23.63
2018-12-08T11:48:47.556Z,30.17
2018-12-08T11:51:14.978Z,21.27
2018-12-08T11:53:42.424Z,20.87
2018-12-08T11:56:09.778Z,21.67
2018-12-08T11:58:37.211Z,18.40
2018-12-08T12:01:04.650Z,27.00
2018-12-08T12:03:32.076Z,18.87
2018-12-08T12:05:59.501Z,19.67
2018-12-08T12:08:26.965Z,20.53
2018-12-08T12:10:54.391Z,15.23
2018-12-08T12:13:21.805Z,13.97
2018-12-08T12:15:49.261Z,10.07
2018-12-08T12:18:16.694Z,19.87
2018-12-08T12:20:44.160Z,15.10
2018-12-08T12:23:11.575Z,13.93
2018-12-08T12:25:39.013Z,14.60
2018-12-08T12:28:06.436Z,13.60
2018-12-08T12:30:33.831Z,25.43
2018-12-08T12:33:01.274Z,20.80
2018-12-08T12:35:28.683Z,24.50
2018-12-08T12:37:56.128Z,21.60
2018-12-08T12:40:23.553Z,16.00
2018-12-08T12:42:50.982Z,21.27
2018-12-08T12:45:18.406Z,19.70
2018-12-08T12:47:45.833Z,16.90
2018-12-08T12:50:13.247Z,24.90
2018-12-08T12:52:40.763Z,17.30
2018-12-08T12:55:08.299Z,22.67
2018-12-08T12:57:35.759Z,19.37
2018-12-08T13:00:03.192Z,22.43
2018-12-08T13:02:30.641Z,19.90
2018-12-08T13:04:58.051Z,23.43
2018-12-08T13:07:25.461Z,23.63
2018-12-08T13:09:52.907Z,23.63
2018-12-08T13:12:20.316Z,23.93
2018-12-08T13:14:47.769Z,29.37
2018-12-08T13:17:15.182Z,20.40
2018-12-08T13:19:42.617Z,23.53
2018-12-08T13:22:10.044Z,18.63
2018-12-08T13:24:37.463Z,26.60
2018-12-08T13:27:04.876Z,20.43
2018-12-08T13:29:32.580Z,25.97
2018-12-08T13:32:00.000Z,23.43
2018-12-08T13:34:27.449Z,20.80
2018-12-08T13:36:54.850Z,23.07
2018-12-08T13:39:23.700Z,21.37
2018-12-08T13:41:51.156Z,27.07
2018-12-08T13:44:33.972Z,24.97
2018-12-08T13:47:01.421Z,24.90
2018-12-08T13:49:28.818Z,20.53
2018-12-08T13:51:56.263Z,25.17
2018-12-08T13:54:45.116Z,26.07
2018-12-08T13:57:12.558Z,31.50
2018-12-08T13:59:39.977Z,25.93
2018-12-08T14:02:07.387Z,26.47
2018-12-08T14:04:34.826Z,32.50
2018-12-08T14:07:02.241Z,29.53
2018-12-08T14:09:29.675Z,26.13
2018-12-08T14:11:57.087Z,30.07
2018-12-08T14:14:24.544Z,26.17
2018-12-08T14:16:52.046Z,30.17
2018-12-08T14:19:19.492Z,29.27
2018-12-08T14:21:46.899Z,29.33
2018-12-08T14:24:18.850Z,40.40
2018-12-08T14:26:45.063Z,27.80
2018-12-08T14:29:12.503Z,27.70
2018-12-08T14:31:39.917Z,36.20
2018-12-08T14:34:07.324Z,32.40
2018-12-08T14:36:34.761Z,39.13
2018-12-08T14:39:02.192Z,32.50
2018-12-08T14:41:29.636Z,30.67
2018-12-08T14:43:57.039Z,31.47
2018-12-08T14:46:24.490Z,31.17
2018-12-08T14:48:51.892Z,28.43
2018-12-08T14:51:19.312Z,28.17
2018-12-08T14:53:46.755Z,26.10
2018-12-08T14:56:14.183Z,20.37
2018-12-08T14:58:41.633Z,28.10
2018-12-08T15:01:09.061Z,27.10
2018-12-08T15:03:36.474Z,23.30
2018-12-08T15:06:03.902Z,26.23
2018-12-08T15:08:31.310Z,38.93
2018-12-08T15:10:58.753Z,29.70
2018-12-08T15:13:26.194Z,24.30
2018-12-08T15:15:53.624Z,27.60
2018-12-08T15:18:21.104Z,32.17
2018-12-08T15:20:48.493Z,31.13
2018-12-08T15:23:15.966Z,33.03
2018-12-08T15:25:43.369Z,29.27
2018-12-08T15:28:10.814Z,30.17
2018-12-08T15:30:38.209Z,32.40
2018-12-08T15:33:05.672Z,29.47
2018-12-08T15:35:33.077Z,21.53
2018-12-08T15:38:00.490Z,22.63
2018-12-08T15:40:27.878Z,20.73
2018-12-08T15:42:55.315Z,21.63
2018-12-08T15:45:22.736Z,14.37
2018-12-08T15:47:50.175Z,22.80
2018-12-08T15:50:17.638Z,16.10
2018-12-08T15:52:45.044Z,15.23
2018-12-08T15:55:12.510Z,14.50
2018-12-08T15:57:39.947Z,17.07
2018-12-08T16:00:07.632Z,16.43
2018-12-08T16:02:36.223Z,15.07
2018-12-08T16:05:04.758Z,12.17
2018-12-08T16:07:32.222Z,12.07
2018-12-08T16:09:59.686Z,16.67
2018-12-08T16:12:27.089Z,11.07
2018-12-08T16:14:54.584Z,12.37
2018-12-08T16:17:22.006Z,9.50
2018-12-08T16:19:50.899Z,8.27
2018-12-08T16:22:18.384Z,6.40
2018-12-08T16:24:45.831Z,5.17
2018-12-08T16:27:13.257Z,5.93
2018-12-08T16:29:40.669Z,6.13
2018-12-08T16:32:08.107Z,5.43
2018-12-08T16:34:35.565Z,3.17
2018-12-08T16:37:04.752Z,5.10
2018-12-08T16:39:32.120Z,6.10
2018-12-08T16:41:59.559Z,3.50
2018-12-08T16:44:27.016Z,4.50
2018-12-08T16:46:54.479Z,4.63
2018-12-08T16:49:21.934Z,2.80
2018-12-08T16:51:49.335Z,5.00
2018-12-08T16:54:16.774Z,4.87
2018-12-08T16:56:44.178Z,3.90
2018-12-08T16:59:11.637Z,4.70
2018-12-08T17:01:40.866Z,3.07
2018-12-08T17:04:06.501Z,7.43
2018-12-08T17:06:33.933Z,5.77
2018-12-08T17:09:01.367Z,3.90
2018-12-08T17:11:28.795Z,8.67
2018-12-08T17:13:56.230Z,10.23
2018-12-08T17:16:23.648Z,5.80
2018-12-08T17:18:51.136Z,4.67
2018-12-08T17:21:18.579Z,5.73
2018-12-08T17:23:47.980Z,5.23
2018-12-08T17:26:13.426Z,7.07
2018-12-08T17:28:40.874Z,10.97
2018-12-08T17:31:08.307Z,8.10
2018-12-08T17:33:35.757Z,7.70
2018-12-08T17:36:03.190Z,6.07
2018-12-08T17:38:30.824Z,6.00
2018-12-08T17:40:58.305Z,6.83
2018-12-08T17:43:25.716Z,5.70
2018-12-08T17:45:53.132Z,5.40
2018-12-08T17:48:20.572Z,6.60
2018-12-08T17:50:48.002Z,5.00
2018-12-08T17:53:15.413Z,5.63
2018-12-08T17:55:42.840Z,4.50
2018-12-08T17:58:10.256Z,5.07
2018-12-08T18:00:37.676Z,5.73
2018-12-08T18:03:05.075Z,4.03
2018-12-08T18:05:33.410Z,8.27
2018-12-08T18:08:02.202Z,6.97
2018-12-08T18:10:29.645Z,7.07
2018-12-08T18:12:57.051Z,6.80
2018-12-08T18:15:24.456Z,5.20
2018-12-08T18:17:51.905Z,6.77
2018-12-08T18:20:19.323Z,5.10
2018-12-08T18:22:47.052Z,7.87
2018-12-08T18:25:14.164Z,5.80
2018-12-08T18:27:41.626Z,4.67
2018-12-08T18:30:09.022Z,6.90
2018-12-08T18:32:36.476Z,8.47
2018-12-08T18:35:03.899Z,7.43
2018-12-08T18:37:31.343Z,6.23
2018-12-08T18:39:58.733Z,6.70
2018-12-08T18:42:26.134Z,6.63
2018-12-08T18:44:53.593Z,8.87
2018-12-08T18:47:21.039Z,6.30
2018-12-08T18:49:48.471Z,7.27
2018-12-08T18:52:15.986Z,12.63
2018-12-08T18:54:43.424Z,8.40
2018-12-08T18:57:10.883Z,9.17
2018-12-08T18:59:38.370Z,7.23
2018-12-08T19:02:05.843Z,8.97
2018-12-08T19:04:33.265Z,6.73
2018-12-08T19:07:00.684Z,9.37
2018-12-08T19:09:28.166Z,7.13
2018-12-08T19:11:55.634Z,5.90
2018-12-08T19:14:23.079Z,4.63
2018-12-08T19:16:50.513Z,5.93
2018-12-08T19:19:17.967Z,3.93
2018-12-08T19:21:45.376Z,2.70
2018-12-08T19:24:12.837Z,3.97
2018-12-08T19:26:40.258Z,3.37
2018-12-08T19:29:07.746Z,3.13
2018-12-08T19:31:35.153Z,3.97
2018-12-08T19:34:02.573Z,3.13
2018-12-08T19:36:29.995Z,3.90
2018-12-08T19:38:57.461Z,1.70
2018-12-08T19:41:24.872Z,2.83
2018-12-08T19:43:52.352Z,3.23
2018-12-08T19:46:19.786Z,4.07
2018-12-08T19:48:47.244Z,3.27
2018-12-08T19:51:14.700Z,5.13
2018-12-08T19:53:42.460Z,3.57
2018-12-08T19:56:09.831Z,4.00
2018-12-08T19:58:37.317Z,10.87
2018-12-08T20:01:04.741Z,5.00
2018-12-08T20:03:32.202Z,15.87
2018-12-08T20:05:59.688Z,5.97
2018-12-08T20:08:27.185Z,7.33
2018-12-08T20:10:57.575Z,8.30
2018-12-08T20:13:25.027Z,10.07
2018-12-08T20:15:52.596Z,7.77
2018-12-08T20:18:20.033Z,9.17
2018-12-08T20:20:49.796Z,6.90
2018-12-08T20:23:15.779Z,7.10
2018-12-08T20:25:43.046Z,5.17
2018-12-08T20:28:10.503Z,5.37
2018-12-08T20:30:38.183Z,5.93
2018-12-08T20:33:06.740Z,6.13
2018-12-08T20:35:36.004Z,6.47
2018-12-08T20:38:03.474Z,4.10
2018-12-08T20:40:30.941Z,4.73
2018-12-08T20:43:04.879Z,4.87
2018-12-08T20:45:40.596Z,3.53
2018-12-08T20:48:09.641Z,4.50
2018-12-08T20:50:40.092Z,5.40
2018-12-08T20:53:07.493Z,7.90
2018-12-08T20:55:34.992Z,9.77
2018-12-08T20:58:02.412Z,11.53
2018-12-08T21:00:29.891Z,8.53
2018-12-08T21:02:57.376Z,16.30
2018-12-08T21:05:24.856Z,13.40
2018-12-08T21:07:52.257Z,14.07
2018-12-08T21:10:19.679Z,13.53
2018-12-08T21:12:47.160Z,16.03
2018-12-08T21:15:14.599Z,10.00
2018-12-08T21:17:42.055Z,21.20
2018-12-08T21:20:10.479Z,13.20
2018-12-08T21:22:37.924Z,21.17
2018-12-08T21:25:05.331Z,16.07
2018-12-08T21:27:32.769Z,14.10
2018-12-08T21:30:00.193Z,21.20
2018-12-08T21:32:27.631Z,19.00
2018-12-08T21:34:55.048Z,23.63
2018-12-08T21:37:22.511Z,14.80
2018-12-08T21:39:49.900Z,24.17
2018-12-08T21:42:17.366Z,26.00
2018-12-08T21:44:44.789Z,23.77
2018-12-08T21:47:12.191Z,26.73
2018-12-08T21:49:39.630Z,32.07
2018-12-08T21:52:07.041Z,27.60
2018-12-08T21:54:34.462Z,27.13
2018-12-08T21:57:01.883Z,34.47
2018-12-08T21:59:29.316Z,28.63
2018-12-08T22:01:56.778Z,31.80
2018-12-08T22:04:24.170Z,29.90
2018-12-08T22:06:51.586Z,40.03
2018-12-08T22:09:19.036Z,33.77
2018-12-08T22:11:46.479Z,46.50
2018-12-08T22:14:13.883Z,37.83
2018-12-08T22:16:41.320Z,34.00
2018-12-08T22:19:08.728Z,32.70
2018-12-08T22:21:36.173Z,34.97
2018-12-08T22:24:03.597Z,35.27
2018-12-08T22:26:31.032Z,30.17
2018-12-08T22:28:58.458Z,25.70
2018-12-08T22:31:25.896Z,39.77
2018-12-08T22:33:53.307Z,26.63
2018-12-08T22:36:20.739Z,32.87
2018-12-08T22:38:48.153Z,32.07
2018-12-08T22:41:15.581Z,23.93
2018-12-08T22:43:42.988Z,25.97
2018-12-08T22:46:10.423Z,21.17
2018-12-08T22:48:37.943Z,22.70
2018-12-08T22:51:05.320Z,19.03
2018-12-08T22:53:32.751Z,28.50
2018-12-08T22:56:00.163Z,17.33
2018-12-08T22:58:27.594Z,21.33
2018-12-08T23:00:55.014Z,19.37
2018-12-08T23:03:22.443Z,21.83
2018-12-08T23:05:49.870Z,19.97
2018-12-08T23:08:17.300Z,19.73
2018-12-08T23:10:44.694Z,18.60
2018-12-08T23:13:12.128Z,20.23
2018-12-08T23:15:39.558Z,21.43
2018-12-08T23:18:06.962Z,23.67
2018-12-08T23:20:34.392Z,21.97
2018-12-08T23:23:01.814Z,21.57
2018-12-08T23:25:29.251Z,16.57
2018-12-08T23:27:56.709Z,22.07
2018-12-08T23:30:24.117Z,29.33
2018-12-08T23:32:51.543Z,19.73
2018-12-08T23:35:18.993Z,24.10
2018-12-08T23:37:46.369Z,17.73
2018-12-08T23:40:13.765Z,25.93
2018-12-08T23:42:41.210Z,26.83
2018-12-08T23:45:08.621Z,27.40
2018-12-08T23:47:36.058Z,26.97
2018-12-08T23:50:03.491Z,23.47
2018-12-08T23:52:30.896Z,28.20
2018-12-08T23:54:58.336Z,23.90
2018-12-08T23:57:25.763Z,26.00
2018-12-08T23:59:53.188Z,27.40
